Philadelphia, Pennsylvania
Traffic Map
Current Weather Conditions
Philadelphia, Pennsylvania
Broken Clouds
Broken Clouds
36°
Feels Like: 42°
Wind Chill: 36° Ceiling: 18000
Heat Index: 42° Visibility: 10mi
Dew Point: 24° Wind: 16mph
Humidity: 51% Direction: 210° (SSW)
Pressure: 29.84in Gusts: 0mph
Raw Report DataKPHL 251954Z 21014KT 10SM SCT045CB SCT120 BKN180 BKN260 36/24 A2984 RMK AO2 SLP102 CB NW MOV E T03560239 $
Traffic Incident Summary
Active as of:
Severity:
Category:
InformationThere was an issue retrieving the traffic information for this location. Please try a different location or try again shortly.
Advertisements
Track Severe Weather on mobile